Time;durP1;ratioP1;P1;durP2;ratioP2;P2;SDS_P1;SDS_P2;PMS_P1;PMS_P2;Temp;Humidity;BMP_temperature;BMP_pressure;BME280_temperature;BME280_humidity;BME280_pressure;Samples;Min_cycle;Max_cycle;Signal;HPM_P1;HPM_P2
2021/08/28 00:00:54;;;;;;;;;;;;;;;22.50;28.05;97535.75;5000281;28;1013;-77
2021/08/28 00:03:20;;;;;;;;;;;;;;;22.43;27.91;97538.84;5000137;28;891;-77
2021/08/28 00:05:52;;;;;;;;;;;;;;;22.35;27.91;97530.63;4999923;28;675;-77
2021/08/28 00:08:18;;;;;;;;;;;;;;;22.39;28.02;97532.53;5001343;28;710;-77
2021/08/28 00:10:49;;;;;;;;;;;;;;;22.32;27.97;97540.03;5004176;28;1907;-77
2021/08/28 00:13:21;;;;;;;;;;;;;;;22.38;27.85;97528.09;5004421;28;623;-77
2021/08/28 00:15:47;;;;;;;;;;;;;;;22.47;27.78;97531.78;5003877;28;1034;-77
2021/08/28 00:18:18;;;;;;;;;;;;;;;22.41;27.95;97538.53;5003566;28;824;-77
2021/08/28 00:20:43;;;;;;;;;;;;;;;22.45;27.76;97542.03;5004099;28;1079;-77
2021/08/28 00:23:15;;;;;;;;;;;;;;;22.29;28.15;97543.81;5003905;28;611;-77
2021/08/28 00:25:47;;;;;;;;;;;;;;;22.31;27.95;97552.63;5004196;28;1019;-77
2021/08/28 00:28:12;;;;;;;;;;;;;;;22.43;28.14;97547.34;5003645;28;1086;-77
2021/08/28 00:30:38;;;;;;;;;;;;;;;22.51;27.79;97549.47;5003690;28;1961;-77
2021/08/28 00:33:10;;;;;;;;;;;;;;;22.44;28.00;97548.97;5003430;28;832;-77
2021/08/28 00:35:35;;;;;;;;;;;;;;;22.46;27.88;97546.44;5003575;28;843;-77
2021/08/28 00:38:01;;;;;;;;;;;;;;;22.45;27.84;97544.88;5003790;28;674;-77
2021/08/28 00:40:26;;;;;;;;;;;;;;;22.36;28.04;97540.69;5003745;28;645;-77
2021/08/28 00:42:52;;;;;;;;;;;;;;;22.43;27.93;97538.84;5003719;28;714;-77
2021/08/28 00:45:18;;;;;;;;;;;;;;;22.43;28.11;97539.63;5002473;28;1159;-77
2021/08/28 00:47:54;;;;;;;;;;;;;;;22.40;28.05;97545.47;5002623;28;959;-77
2021/08/28 00:50:20;;;;;;;;;;;;;;;22.51;27.80;97537.34;5002683;28;1959;-77
2021/08/28 00:52:45;;;;;;;;;;;;;;;22.45;28.12;97544.88;5002881;28;1278;-77
2021/08/28 00:55:10;;;;;;;;;;;;;;;22.46;27.80;97546.44;5002731;28;627;-77
2021/08/28 00:57:37;;;;;;;;;;;;;;;22.50;27.79;97547.09;5002901;28;1124;-77
2021/08/28 01:00:04;;;;;;;;;;;;;;;22.49;27.78;97551.19;5002981;28;975;-77
2021/08/28 01:02:30;;;;;;;;;;;;;;;22.39;27.94;97546.72;5018763;28;1199;-77
2021/08/28 01:05:09;;;;;;;;;;;;;;;22.41;28.21;97545.00;5002084;28;927;-77
2021/08/28 01:07:46;;;;;;;;;;;;;;;22.35;27.79;97539.13;5002604;28;640;-77
2021/08/28 01:10:34;;;;;;;;;;;;;;;22.40;28.24;97539.78;5003063;28;1983;-77
2021/08/28 01:13:25;;;;;;;;;;;;;;;22.29;28.26;97546.66;5000895;28;1074;-77
2021/08/28 01:15:54;;;;;;;;;;;;;;;22.43;27.97;97548.13;4986598;28;1342;-77
2021/08/28 01:18:21;;;;;;;;;;;;;;;22.47;28.05;97559.34;5001641;28;1112;-77
2021/08/28 01:20:53;;;;;;;;;;;;;;;22.43;27.88;97545.31;5001853;28;985;-77
2021/08/28 01:23:34;;;;;;;;;;;;;;;22.54;27.82;97547.78;5002219;28;512;-77
2021/08/28 01:26:15;;;;;;;;;;;;;;;22.51;27.88;97554.34;5002192;28;600;-77
2021/08/28 01:28:46;;;;;;;;;;;;;;;22.42;28.08;97551.44;5002171;28;1299;-77
2021/08/28 01:31:13;;;;;;;;;;;;;;;22.51;27.78;97554.34;5002606;28;1915;-77
2021/08/28 01:33:39;;;;;;;;;;;;;;;22.52;28.03;97553.09;4985544;28;1225;-77
2021/08/28 01:36:07;;;;;;;;;;;;;;;22.42;27.94;97545.78;4986560;28;1041;-77
2021/08/28 01:38:58;;;;;;;;;;;;;;;22.39;28.13;97549.56;4998967;28;927;-77
2021/08/28 01:41:26;;;;;;;;;;;;;;;22.53;27.71;97558.28;4986011;28;1387;-77
2021/08/28 01:43:54;;;;;;;;;;;;;;;22.31;28.04;97546.97;5001614;28;1132;-77
2021/08/28 01:46:20;;;;;;;;;;;;;;;22.31;27.93;97549.78;4985183;28;1160;-77
2021/08/28 01:48:51;;;;;;;;;;;;;;;22.54;27.64;97542.09;4985922;28;1501;-77
2021/08/28 01:51:20;;;;;;;;;;;;;;;22.42;27.95;97545.78;4986025;28;1964;-77
2021/08/28 01:53:46;;;;;;;;;;;;;;;22.57;27.78;97541.94;5001478;28;421;-76
2021/08/28 01:56:13;;;;;;;;;;;;;;;22.49;27.79;97540.66;5002034;28;1254;-77
2021/08/28 01:58:38;;;;;;;;;;;;;;;22.67;27.62;97551.31;5001346;28;1372;-77
2021/08/28 02:01:18;;;;;;;;;;;;;;;22.52;27.64;97538.91;4987220;28;1322;-77
2021/08/28 02:03:45;;;;;;;;;;;;;;;22.58;27.55;97543.53;5001196;28;1254;-77
2021/08/28 02:06:13;;;;;;;;;;;;;;;22.63;27.52;97539.28;5002254;28;623;-77
2021/08/28 02:08:44;;;;;;;;;;;;;;;22.48;27.71;97541.09;4985474;28;1224;-77
2021/08/28 02:11:11;;;;;;;;;;;;;;;22.52;27.61;97544.59;5001248;28;1910;-77
2021/08/28 02:13:45;;;;;;;;;;;;;;;22.41;28.14;97532.88;5001091;28;663;-77
2021/08/28 02:16:13;;;;;;;;;;;;;;;22.46;27.70;97537.94;4985143;28;1171;-77
2021/08/28 02:18:41;;;;;;;;;;;;;;;22.60;27.65;97537.41;5000543;28;942;-77
2021/08/28 02:21:18;;;;;;;;;;;;;;;22.44;27.90;97537.63;4986676;28;1276;-77
2021/08/28 02:23:54;;;;;;;;;;;;;;;22.30;28.24;97539.72;4984870;28;1209;-77
2021/08/28 02:26:24;;;;;;;;;;;;;;;22.39;28.10;97541.03;4985406;28;1200;-77
2021/08/28 02:29:03;;;;;;;;;;;;;;;22.36;28.18;97537.88;5001121;28;1305;-78
2021/08/28 02:31:33;;;;;;;;;;;;;;;22.55;27.88;97533.13;4984653;28;1156;-77
2021/08/28 02:34:02;;;;;;;;;;;;;;;22.45;27.95;97544.88;5000759;28;1172;-77
2021/08/28 02:36:28;;;;;;;;;;;;;;;22.52;27.76;97539.69;4985157;28;1148;-77
2021/08/28 02:38:54;;;;;;;;;;;;;;;22.57;27.63;97541.16;4984982;28;1141;-77
2021/08/28 02:41:20;;;;;;;;;;;;;;;22.45;27.82;97544.88;4984615;28;1192;-77
2021/08/28 02:43:47;;;;;;;;;;;;;;;22.45;27.87;97556.22;5000751;28;627;-77
2021/08/28 02:46:14;;;;;;;;;;;;;;;22.46;27.93;97552.91;4984560;28;1349;-77
2021/08/28 02:48:39;;;;;;;;;;;;;;;22.60;27.74;97554.41;5000863;28;861;-77
2021/08/28 02:51:10;;;;;;;;;;;;;;;22.54;27.73;97556.28;4984670;28;1906;-77
2021/08/28 02:53:37;;;;;;;;;;;;;;;22.36;27.83;97560.53;4984962;28;1307;-77
2021/08/28 02:56:03;;;;;;;;;;;;;;;22.55;27.64;97563.53;4984713;28;1176;-76
2021/08/28 02:58:31;;;;;;;;;;;;;;;22.39;27.68;97569.41;4984633;28;1283;-77
2021/08/28 03:00:57;;;;;;;;;;;;;;;22.32;27.91;97571.22;5000416;28;1111;-77
2021/08/28 03:03:22;;;;;;;;;;;;;;;22.54;27.57;97573.28;5000180;28;897;-77
2021/08/28 03:05:50;;;;;;;;;;;;;;;22.55;27.83;97577.69;5000506;28;839;-77
2021/08/28 03:08:16;;;;;;;;;;;;;;;22.45;27.95;97578.88;4984396;28;1293;-77
2021/08/28 03:10:49;;;;;;;;;;;;;;;22.34;27.77;97580.06;4984110;28;1962;-77
2021/08/28 03:13:16;;;;;;;;;;;;;;;22.44;27.83;97571.63;4984339;28;1226;-77
2021/08/28 03:15:43;;;;;;;;;;;;;;;22.42;27.95;97574.13;4983606;28;1201;-77
2021/08/28 03:18:13;;;;;;;;;;;;;;;22.37;28.03;97584.00;4984501;28;1304;-77
2021/08/28 03:20:42;;;;;;;;;;;;;;;22.29;27.93;97586.31;4984754;28;1175;-77
2021/08/28 03:23:10;;;;;;;;;;;;;;;22.39;27.78;97590.03;4984480;28;1329;-77
2021/08/28 03:25:36;;;;;;;;;;;;;;;22.52;27.70;97589.94;4984107;28;1241;-77
2021/08/28 03:28:01;;;;;;;;;;;;;;;22.51;27.55;97596.88;4999953;28;1014;-77
2021/08/28 03:30:28;;;;;;;;;;;;;;;22.54;27.32;97605.25;4999914;28;1906;-77
2021/08/28 03:32:53;;;;;;;;;;;;;;;22.57;27.35;97604.31;4999888;28;1291;-77
2021/08/28 03:35:19;;;;;;;;;;;;;;;22.44;27.84;97608.50;4984070;28;1346;-77
2021/08/28 03:37:45;;;;;;;;;;;;;;;22.41;27.97;97612.22;4999924;28;1187;-77
2021/08/28 03:40:12;;;;;;;;;;;;;;;22.41;27.64;97606.56;5000093;28;1322;-77
2021/08/28 03:42:39;;;;;;;;;;;;;;;22.39;28.01;97614.75;4983979;28;1194;-77
2021/08/28 03:45:08;;;;;;;;;;;;;;;22.50;27.41;97620.81;5003704;28;933;-77
2021/08/28 03:47:37;;;;;;;;;;;;;;;22.53;27.85;97625.56;5020011;28;1320;-77
2021/08/28 03:50:03;;;;;;;;;;;;;;;22.68;27.46;97626.63;4987539;28;1981;-77
2021/08/28 03:52:31;;;;;;;;;;;;;;;22.56;27.80;97619.75;4988181;28;1302;-77
2021/08/28 03:54:57;;;;;;;;;;;;;;;22.60;27.42;97625.31;5003422;28;779;-78
2021/08/28 03:57:22;;;;;;;;;;;;;;;22.46;27.76;97629.44;5004492;28;685;-77
2021/08/28 03:59:48;;;;;;;;;;;;;;;22.39;28.12;97629.72;5003614;28;1136;-78
2021/08/28 04:02:19;;;;;;;;;;;;;;;22.74;27.67;97630.47;5003980;28;1369;-78
2021/08/28 04:04:48;;;;;;;;;;;;;;;22.57;28.21;97637.56;5004288;28;1200;-78
2021/08/28 04:07:14;;;;;;;;;;;;;;;22.58;28.25;97639.13;5004790;28;1207;-78
2021/08/28 04:09:40;;;;;;;;;;;;;;;22.58;28.46;97637.09;5004101;28;1906;-78
2021/08/28 04:12:06;;;;;;;;;;;;;;;22.61;28.61;97638.22;5004070;28;1253;-76
2021/08/28 04:14:40;;;;;;;;;;;;;;;22.58;28.69;97633.47;5003402;28;1212;-78
2021/08/28 04:17:05;;;;;;;;;;;;;;;22.71;28.31;97637.03;5003978;28;647;-78
2021/08/28 04:19:31;;;;;;;;;;;;;;;22.73;28.53;97640.19;5003278;28;1306;-78
2021/08/28 04:22:16;;;;;;;;;;;;;;;22.74;28.43;97636.13;4990965;28;1370;-78
2021/08/28 04:25:08;;;;;;;;;;;;;;;22.65;28.61;97641.72;4981569;28;903;-79
2021/08/28 04:27:52;;;;;;;;;;;;;;;22.66;29.05;97639.69;5004134;28;968;-78
2021/08/28 04:30:25;;;;;;;;;;;;;;;22.69;29.05;97638.75;4975824;28;1914;-78
2021/08/28 04:32:51;;;;;;;;;;;;;;;22.71;28.75;97641.94;4967902;28;1467;-78
2021/08/28 04:35:17;;;;;;;;;;;;;;;22.79;28.61;97641.19;4984060;28;1255;-78
2021/08/28 04:37:44;;;;;;;;;;;;;;;22.70;28.77;97646.03;4983677;28;1188;-77
2021/08/28 04:40:10;;;;;;;;;;;;;;;22.79;28.93;97638.34;4968150;28;1157;-78
2021/08/28 04:42:36;;;;;;;;;;;;;;;22.56;29.27;97647.31;4982666;28;893;-77
2021/08/28 04:45:03;;;;;;;;;;;;;;;22.60;28.96;97643.13;4967527;28;1351;-77
2021/08/28 04:47:38;;;;;;;;;;;;;;;22.63;28.95;97635.72;4969245;28;1011;-78
2021/08/28 04:50:04;;;;;;;;;;;;;;;22.86;28.78;97637.31;4983563;28;1898;-77
2021/08/28 04:52:36;;;;;;;;;;;;;;;22.81;28.92;97647.22;4983959;28;1244;-78
2021/08/28 04:55:02;;;;;;;;;;;;;;;22.94;28.55;97643.53;4983555;28;1258;-78
2021/08/28 04:57:28;;;;;;;;;;;;;;;22.70;29.48;97638.31;4966755;28;1259;-77
2021/08/28 04:59:55;;;;;;;;;;;;;;;22.76;29.41;97633.63;4967052;28;1311;-78
2021/08/28 05:02:41;;;;;;;;;;;;;;;22.65;29.61;97636.06;4983940;28;1065;-78
2021/08/28 05:05:09;;;;;;;;;;;;;;;22.47;29.88;97641.56;4967552;28;1286;-77
2021/08/28 05:07:34;;;;;;;;;;;;;;;22.72;29.97;97644.28;4983917;28;1173;-78
2021/08/28 05:10:00;;;;;;;;;;;;;;;22.79;30.08;97646.06;4966719;28;1898;-76
2021/08/28 05:12:25;;;;;;;;;;;;;;;22.79;29.96;97651.75;4983379;28;1220;-78
2021/08/28 05:15:10;;;;;;;;;;;;;;;22.70;30.12;97652.50;4983985;28;553;-78
2021/08/28 05:17:46;;;;;;;;;;;;;;;22.66;30.28;97651.81;4983686;28;1270;-78
2021/08/28 05:20:11;;;;;;;;;;;;;;;22.74;30.19;97658.00;4967283;28;1168;-78
2021/08/28 05:22:50;;;;;;;;;;;;;;;22.74;30.45;97658.81;4983167;28;989;-78
2021/08/28 05:25:39;;;;;;;;;;;;;;;22.81;30.50;97661.38;4983636;28;977;-77
2021/08/28 05:28:04;;;;;;;;;;;;;;;22.84;30.36;97651.94;4966566;28;1181;-78
2021/08/28 05:30:30;;;;;;;;;;;;;;;22.81;30.41;97655.72;4983185;28;1910;-78
2021/08/28 05:32:55;;;;;;;;;;;;;;;22.81;30.16;97675.56;4983268;28;1255;-78
2021/08/28 05:35:21;;;;;;;;;;;;;;;22.75;30.42;97665.28;4983513;28;1180;-78
2021/08/28 05:38:16;;;;;;;;;;;;;;;22.68;30.56;97665.53;4952833;28;1032;-77
2021/08/28 05:40:42;;;;;;;;;;;;;;;22.75;30.70;97659.63;4966851;28;957;-78
2021/08/28 05:43:07;;;;;;;;;;;;;;;22.77;30.61;97659.94;4982398;28;935;-78
2021/08/28 05:45:51;;;;;;;;;;;;;;;22.74;30.50;97661.66;4983485;28;478;-78
2021/08/28 05:48:18;;;;;;;;;;;;;;;22.70;30.58;97658.16;4982743;28;1183;-78
2021/08/28 05:50:44;;;;;;;;;;;;;;;22.95;30.03;97662.13;4982916;28;1910;-77
2021/08/28 05:53:10;;;;;;;;;;;;;;;22.86;30.34;97669.31;4982792;28;1176;-78
2021/08/28 05:55:36;;;;;;;;;;;;;;;22.77;30.43;97657.88;4983148;28;1233;-77
2021/08/28 05:58:01;;;;;;;;;;;;;;;22.77;30.39;97657.09;4982971;28;898;-78
2021/08/28 06:00:27;;;;;;;;;;;;;;;22.86;30.26;97643.78;4982404;28;1177;-77
2021/08/28 06:03:07;;;;;;;;;;;;;;;22.73;30.52;97651.53;4982284;28;799;-77
2021/08/28 06:05:33;;;;;;;;;;;;;;;22.91;30.71;97655.81;4982236;28;1308;-78
2021/08/28 06:08:24;;;;;;;;;;;;;;;22.76;30.82;97639.28;4967701;28;998;-77
2021/08/28 06:10:56;;;;;;;;;;;;;;;22.84;30.68;97649.09;4982086;28;1910;-78
2021/08/28 06:13:40;;;;;;;;;;;;;;;22.95;30.62;97650.78;4982525;28;1061;-78
2021/08/28 06:16:21;;;;;;;;;;;;;;;22.80;30.80;97645.63;4982088;28;1250;-78
2021/08/28 06:18:47;;;;;;;;;;;;;;;22.74;30.99;97650.31;4965258;28;1327;-78
2021/08/28 06:21:13;;;;;;;;;;;;;;;22.73;30.95;97656.44;4965810;28;1114;-76
2021/08/28 06:23:39;;;;;;;;;;;;;;;22.90;30.72;97654.22;4982550;28;1244;-78
2021/08/28 06:26:34;;;;;;;;;;;;;;;22.87;30.52;97662.38;4981655;28;1288;-77
2021/08/28 06:29:04;;;;;;;;;;;;;;;22.74;31.03;97669.34;4981394;28;1230;-78
2021/08/28 06:31:31;;;;;;;;;;;;;;;22.71;30.93;97654.06;4966809;28;1918;-78
2021/08/28 06:33:58;;;;;;;;;;;;;;;22.93;30.56;97653.31;4966054;28;1313;-77
2021/08/28 06:36:29;;;;;;;;;;;;;;;22.96;30.62;97646.72;4983140;28;764;-79
2021/08/28 06:38:57;;;;;;;;;;;;;;;22.83;30.73;97650.34;4982003;28;568;-78
2021/08/28 06:41:41;;;;;;;;;;;;;;;22.95;30.37;97653.63;4982558;28;850;-78
2021/08/28 06:44:25;;;;;;;;;;;;;;;22.86;30.79;97654.34;4982034;28;872;-78
2021/08/28 06:47:09;;;;;;;;;;;;;;;22.87;30.58;97656.69;4982033;28;625;-78
2021/08/28 06:49:53;;;;;;;;;;;;;;;22.86;30.42;97660.78;4981579;28;1930;-78
2021/08/28 06:52:37;;;;;;;;;;;;;;;22.86;30.35;97655.13;4982240;28;643;-78
2021/08/28 06:55:21;;;;;;;;;;;;;;;23.00;30.23;97658.69;4982332;28;667;-78
2021/08/28 06:58:21;;;;;;;;;;;;;;;22.93;30.13;97653.31;4942043;29;951;-78
2021/08/28 07:01:07;;;;;;;;;;;;;;;22.95;30.11;97656.44;4972345;28;970;-78
2021/08/28 07:04:11;;;;;;;;;;;;;;;22.99;29.99;97651.44;4942034;29;573;-78
2021/08/28 07:07:09;;;;;;;;;;;;;;;22.97;30.02;97651.13;4910160;29;1302;-78
2021/08/28 07:09:35;;;;;;;;;;;;;;;22.96;30.21;97652.38;4963017;28;1898;-78
2021/08/28 07:12:01;;;;;;;;;;;;;;;23.02;29.95;97656.19;4965860;28;1233;-78
2021/08/28 07:14:33;;;;;;;;;;;;;;;22.86;30.22;97655.13;4965171;28;1213;-79
2021/08/28 07:16:58;;;;;;;;;;;;;;;22.89;30.37;97647.75;4965486;28;1267;-78
2021/08/28 07:19:24;;;;;;;;;;;;;;;22.81;30.37;97647.22;4980787;28;1221;-78
2021/08/28 07:21:49;;;;;;;;;;;;;;;23.01;30.27;97640.44;4965436;28;1128;-78
2021/08/28 07:24:15;;;;;;;;;;;;;;;22.98;30.29;97635.69;4981800;28;1238;-78
2021/08/28 07:26:45;;;;;;;;;;;;;;;22.97;30.49;97643.41;4966129;28;1328;-78
2021/08/28 07:29:29;;;;;;;;;;;;;;;22.81;30.55;97638.69;4980708;28;1903;-78
2021/08/28 07:31:55;;;;;;;;;;;;;;;22.75;30.68;97636.94;4965463;28;1145;-78
2021/08/28 07:34:20;;;;;;;;;;;;;;;22.88;30.53;97635.63;4980817;28;1138;-78
2021/08/28 07:36:46;;;;;;;;;;;;;;;22.92;30.50;97624.13;4981395;28;1404;-79
2021/08/28 07:39:12;;;;;;;;;;;;;;;22.87;30.34;97619.81;4981355;28;1311;-78
2021/08/28 07:41:37;;;;;;;;;;;;;;;22.77;30.43;97621.00;4964961;28;1233;-78
2021/08/28 07:44:03;;;;;;;;;;;;;;;22.87;30.43;97631.16;4980731;28;1262;-78
2021/08/28 07:46:28;;;;;;;;;;;;;;;22.91;30.47;97633.13;4981170;28;1284;-78
2021/08/28 07:49:13;;;;;;;;;;;;;;;22.88;30.43;97629.16;4981128;28;1266;-78
2021/08/28 07:51:38;;;;;;;;;;;;;;;22.95;30.49;97633.75;4965226;28;1965;-78
2021/08/28 07:54:05;;;;;;;;;;;;;;;23.07;30.23;97630.06;4981021;28;1078;-78
2021/08/28 07:56:31;;;;;;;;;;;;;;;22.90;30.65;97623.00;4980719;28;1102;-78
2021/08/28 07:58:57;;;;;;;;;;;;;;;22.82;30.50;97626.09;4964849;28;1298;-78
2021/08/28 08:01:23;;;;;;;;;;;;;;;22.72;30.85;97623.66;4981208;28;1183;-78
2021/08/28 08:03:49;;;;;;;;;;;;;;;22.86;30.44;97626.75;4980836;28;1139;-77
2021/08/28 08:06:20;;;;;;;;;;;;;;;22.83;30.79;97624.84;4982130;28;644;-78
2021/08/28 08:09:04;;;;;;;;;;;;;;;22.86;30.68;97621.09;4980774;28;608;-78
2021/08/28 08:11:32;;;;;;;;;;;;;;;22.82;30.90;97626.09;4981474;28;1906;-78
2021/08/28 08:14:16;;;;;;;;;;;;;;;22.73;30.82;97628.84;4980836;28;914;-78
2021/08/28 08:17:04;;;;;;;;;;;;;;;22.85;30.68;97613.84;4962688;28;1187;-78
2021/08/28 08:19:48;;;;;;;;;;;;;;;22.91;30.63;97613.25;4980768;28;628;-78
2021/08/28 08:22:32;;;;;;;;;;;;;;;22.94;30.50;97618.00;4981412;28;610;-77
2021/08/28 08:25:17;;;;;;;;;;;;;;;22.83;30.53;97616.31;4967322;28;918;-78
2021/08/28 08:28:05;;;;;;;;;;;;;;;22.90;30.75;97609.63;4965236;28;1198;-78
2021/08/28 08:30:57;;;;;;;;;;;;;;;22.81;30.55;97601.81;4974027;28;1970;-78
2021/08/28 08:33:25;;;;;;;;;;;;;;;22.92;30.38;97609.16;4987246;28;1302;-78
2021/08/28 08:35:54;;;;;;;;;;;;;;;22.91;30.59;97602.69;4972323;28;1305;-78
2021/08/28 08:38:20;;;;;;;;;;;;;;;22.81;30.56;97607.50;4987143;28;1266;-78
2021/08/28 08:40:47;;;;;;;;;;;;;;;23.01;30.54;97620.56;4987813;28;1248;-78
2021/08/28 08:43:12;;;;;;;;;;;;;;;23.07;30.21;97601.69;4986250;28;877;-78
2021/08/28 08:45:38;;;;;;;;;;;;;;;23.05;30.27;97604.19;4986737;28;1144;-78
2021/08/28 08:48:04;;;;;;;;;;;;;;;22.90;30.83;97598.28;4986490;28;954;-77
2021/08/28 08:50:30;;;;;;;;;;;;;;;22.97;30.28;97594.38;4971194;28;1907;-78
2021/08/28 08:53:01;;;;;;;;;;;;;;;22.95;30.79;97602.53;4987150;28;1275;-78
2021/08/28 08:55:51;;;;;;;;;;;;;;;23.07;30.27;97607.38;4982729;28;1038;-78
2021/08/28 08:58:17;;;;;;;;;;;;;;;23.05;30.61;97592.84;4970846;28;1026;-78
2021/08/28 09:00:52;;;;;;;;;;;;;;;23.00;30.61;97599.94;4972377;28;1355;-78
2021/08/28 09:03:40;;;;;;;;;;;;;;;22.88;30.86;97598.72;4984521;28;911;-78
2021/08/28 09:06:09;;;;;;;;;;;;;;;22.96;30.60;97598.47;4988035;28;1312;-78
2021/08/28 09:08:41;;;;;;;;;;;;;;;22.92;30.86;97589.31;4986783;28;1965;-78
2021/08/28 09:11:23;;;;;;;;;;;;;;;23.00;30.50;97601.94;5004128;28;1906;-78
2021/08/28 09:13:48;;;;;;;;;;;;;;;23.06;30.44;97591.59;4985981;28;992;-79
2021/08/28 09:16:27;;;;;;;;;;;;;;;21.43;30.62;97341.38;5002894;28;809;-77
2021/08/28 09:18:52;;;;;;;;;;;;;;;22.87;30.86;97594.28;4986934;28;726;-78
2021/08/28 09:21:23;;;;;;;;;;;;;;;22.92;30.88;97594.97;4986543;28;1032;-78
2021/08/28 09:23:49;;;;;;;;;;;;;;;23.08;30.77;97597.59;4986937;28;736;-79
2021/08/28 09:26:24;;;;;;;;;;;;;;;22.99;30.81;97583.34;5003277;28;727;-78
2021/08/28 09:28:54;;;;;;;;;;;;;;;23.32;30.07;97587.31;4982563;28;1004;-78
2021/08/28 09:31:19;;;;;;;;;;;;;;;23.11;30.29;97588.16;4982978;28;1977;-78
2021/08/28 09:33:45;;;;;;;;;;;;;;;23.02;30.63;97588.09;4982947;28;1292;-78
2021/08/28 09:36:10;;;;;;;;;;;;;;;22.99;31.01;97595.47;4984227;28;659;-78
2021/08/28 09:38:36;;;;;;;;;;;;;;;23.06;30.52;97583.09;4966387;28;1352;-78
2021/08/28 09:41:02;;;;;;;;;;;;;;;23.00;30.78;97579.25;4983016;28;654;-78
2021/08/28 09:43:27;;;;;;;;;;;;;;;22.95;30.76;97588.38;4983404;28;898;-78
2021/08/28 09:45:53;;;;;;;;;;;;;;;23.12;30.54;97584.06;4983791;28;827;-78
2021/08/28 09:48:24;;;;;;;;;;;;;;;23.14;30.80;97584.38;4982534;28;890;-78
2021/08/28 09:50:50;;;;;;;;;;;;;;;23.11;30.52;97571.13;4983022;28;1902;-78
2021/08/28 09:53:21;;;;;;;;;;;;;;;22.97;30.68;97580.19;4982553;28;715;-78
2021/08/28 09:55:47;;;;;;;;;;;;;;;23.00;30.71;97580.06;4983114;28;679;-78
2021/08/28 09:58:12;;;;;;;;;;;;;;;22.95;30.67;97577.00;4966173;28;1203;-78
2021/08/28 10:00:41;;;;;;;;;;;;;;;23.07;30.51;97573.31;4982351;28;933;-78
2021/08/28 10:03:07;;;;;;;;;;;;;;;23.20;30.71;97567.53;4982131;28;1004;-78
2021/08/28 10:05:36;;;;;;;;;;;;;;;23.26;30.36;97569.31;4983372;28;703;-78
2021/08/28 10:08:02;;;;;;;;;;;;;;;23.13;30.44;97555.19;4982199;28;906;-78
2021/08/28 10:10:29;;;;;;;;;;;;;;;23.05;30.99;97561.63;4983270;28;1973;-78
2021/08/28 10:12:55;;;;;;;;;;;;;;;23.12;30.56;97569.88;4984779;28;1356;-78
2021/08/28 10:15:21;;;;;;;;;;;;;;;23.24;30.33;97559.66;5001219;28;853;-78
2021/08/28 10:17:47;;;;;;;;;;;;;;;23.25;30.52;97569.75;5001290;28;1075;-78
2021/08/28 10:20:12;;;;;;;;;;;;;;;23.20;30.80;97553.34;4982815;28;1072;-78
2021/08/28 10:22:39;;;;;;;;;;;;;;;23.19;30.55;97557.44;4981823;28;1160;-78
2021/08/28 10:25:07;;;;;;;;;;;;;;;23.21;30.61;97555.72;4979224;28;1140;-77
2021/08/28 10:27:32;;;;;;;;;;;;;;;23.18;30.55;97555.84;4981041;28;1206;-78
2021/08/28 10:29:58;;;;;;;;;;;;;;;23.14;30.78;97553.16;4992087;28;1969;-78
2021/08/28 10:32:23;;;;;;;;;;;;;;;23.24;30.56;97553.97;4976438;28;1329;-77
2021/08/28 10:34:49;;;;;;;;;;;;;;;23.29;30.63;97557.00;4974721;28;1203;-78
2021/08/28 10:37:15;;;;;;;;;;;;;;;23.25;30.80;97561.25;4991001;28;1198;-78
2021/08/28 10:39:41;;;;;;;;;;;;;;;23.19;30.75;97558.22;4973402;28;1108;-78
2021/08/28 10:42:06;;;;;;;;;;;;;;;23.33;30.30;97554.81;4958592;28;1286;-77
2021/08/28 10:44:32;;;;;;;;;;;;;;;23.24;30.82;97551.94;4991249;28;1171;-78
2021/08/28 10:46:58;;;;;;;;;;;;;;;23.33;30.87;97556.88;4960752;28;1374;-78
2021/08/28 10:49:26;;;;;;;;;;;;;;;23.26;30.86;97551.47;4973589;28;1903;-78
2021/08/28 10:51:53;;;;;;;;;;;;;;;23.25;30.90;97555.56;4975246;28;1311;-78
2021/08/28 10:54:20;;;;;;;;;;;;;;;23.19;31.20;97566.72;4990034;28;1234;-78
2021/08/28 10:56:45;;;;;;;;;;;;;;;23.07;31.37;97550.59;4959256;28;1391;-77
2021/08/28 10:59:17;;;;;;;;;;;;;;;23.29;30.58;97559.06;4973966;28;1182;-78
2021/08/28 11:01:50;;;;;;;;;;;;;;;23.27;30.88;97556.69;4975624;28;1206;-77
2021/08/28 11:04:34;;;;;;;;;;;;;;;23.19;30.99;97552.53;4956588;28;1262;-78
2021/08/28 11:07:16;;;;;;;;;;;;;;;23.29;31.18;97545.66;4988904;28;1180;-78
2021/08/28 11:10:00;;;;;;;;;;;;;;;23.26;31.04;97545.78;4975389;28;1879;-78
2021/08/28 11:12:26;;;;;;;;;;;;;;;23.20;31.13;97545.59;4987964;28;1041;-77
2021/08/28 11:14:51;;;;;;;;;;;;;;;23.27;30.98;97542.50;4991431;28;1170;-77
2021/08/28 11:17:17;;;;;;;;;;;;;;;23.26;31.22;97546.59;4974531;28;1333;-77
2021/08/28 11:19:49;;;;;;;;;;;;;;;23.26;30.99;97540.91;4983877;28;935;-78
2021/08/28 11:22:22;;;;;;;;;;;;;;;23.28;31.21;97549.75;5001598;28;718;-78
2021/08/28 11:24:53;;;;;;;;;;;;;;;23.30;31.15;97530.19;5000951;28;978;-78
2021/08/28 11:27:22;;;;;;;;;;;;;;;23.26;31.08;97545.78;5000968;28;847;-78
2021/08/28 11:29:48;;;;;;;;;;;;;;;23.08;31.46;97540.84;4983801;28;1971;-78
2021/08/28 11:32:18;;;;;;;;;;;;;;;23.20;31.32;97542.75;5001280;28;611;-78
2021/08/28 11:34:44;;;;;;;;;;;;;;;23.30;31.09;97535.06;4984175;28;659;-78
2021/08/28 11:37:28;;;;;;;;;;;;;;;23.30;31.07;97547.22;4983507;28;882;-78
2021/08/28 11:39:54;;;;;;;;;;;;;;;23.23;31.32;97536.16;5000729;28;973;-78
2021/08/28 11:42:19;;;;;;;;;;;;;;;23.36;31.21;97534.03;4984203;28;860;-78
2021/08/28 11:44:49;;;;;;;;;;;;;;;23.32;31.46;97539.03;4983983;28;872;-77
2021/08/28 11:47:14;;;;;;;;;;;;;;;23.23;31.25;97536.16;5001152;28;630;-78
2021/08/28 11:49:39;;;;;;;;;;;;;;;23.36;31.31;97541.72;4983405;28;2080;-78
2021/08/28 11:52:05;;;;;;;;;;;;;;;23.16;31.39;97544.97;5001247;28;666;-78
2021/08/28 11:54:31;;;;;;;;;;;;;;;23.06;31.87;97538.47;5000465;28;933;-78
2021/08/28 11:56:57;;;;;;;;;;;;;;;23.07;31.57;97539.25;4983184;28;971;-78
2021/08/28 11:59:35;;;;;;;;;;;;;;;23.18;31.66;97538.81;5000760;28;968;-78
2021/08/28 12:02:01;;;;;;;;;;;;;;;23.16;31.70;97532.81;5001043;28;584;-78
2021/08/28 12:04:26;;;;;;;;;;;;;;;23.30;31.44;97535.88;4985087;28;685;-77
2021/08/28 12:06:55;;;;;;;;;;;;;;;23.35;31.38;97532.41;4987795;28;838;-78
2021/08/28 12:09:21;;;;;;;;;;;;;;;23.24;31.67;97536.94;4987364;28;1294;-78
2021/08/28 12:11:47;;;;;;;;;;;;;;;23.20;31.71;97537.09;4986761;28;1906;-78
2021/08/28 12:14:13;;;;;;;;;;;;;;;23.45;31.04;97529.59;5004560;28;850;-78
2021/08/28 12:16:41;;;;;;;;;;;;;;;23.39;31.45;97527.38;5004749;28;686;-78
2021/08/28 12:19:16;;;;;;;;;;;;;;;23.44;31.42;97525.19;4987731;28;768;-78
2021/08/28 12:21:42;;;;;;;;;;;;;;;23.31;31.15;97530.97;4987312;28;874;-78
2021/08/28 12:24:11;;;;;;;;;;;;;;;23.48;31.11;97534.38;5003922;28;1039;-77
2021/08/28 12:26:36;;;;;;;;;;;;;;;23.39;31.25;97516.03;5004154;28;953;-78
2021/08/28 12:29:02;;;;;;;;;;;;;;;23.10;31.63;97509.94;5004117;28;1100;-78
2021/08/28 12:31:28;;;;;;;;;;;;;;;23.14;31.75;97504.91;5004241;28;1985;-78
2021/08/28 12:33:54;;;;;;;;;;;;;;;23.12;31.69;97501.75;4987067;28;1468;-76
2021/08/28 12:36:38;;;;;;;;;;;;;;;23.39;30.94;97510.34;4987454;28;663;-78
2021/08/28 12:39:06;;;;;;;;;;;;;;;23.53;30.86;97508.19;5003365;28;855;-77
2021/08/28 12:41:31;;;;;;;;;;;;;;;23.17;31.62;97515.34;4986819;28;819;-78
2021/08/28 12:43:57;;;;;;;;;;;;;;;23.37;31.24;97529.91;5004097;28;624;-78
2021/08/28 12:46:22;;;;;;;;;;;;;;;23.34;31.26;97519.47;4987022;28;921;-78
2021/08/28 12:49:06;;;;;;;;;;;;;;;23.32;31.14;97513.50;5004029;28;690;-78
2021/08/28 12:51:31;;;;;;;;;;;;;;;23.25;31.24;97505.25;5004163;28;1969;-78
2021/08/28 12:54:00;;;;;;;;;;;;;;;23.51;30.89;97500.13;4986584;28;1110;-78
2021/08/28 12:56:25;;;;;;;;;;;;;;;23.35;31.07;97509.69;4986491;28;857;-78
2021/08/28 12:58:50;;;;;;;;;;;;;;;23.26;30.96;97506.84;5004089;28;854;-78
2021/08/28 13:01:16;;;;;;;;;;;;;;;23.36;30.95;97511.31;5004260;28;716;-78
2021/08/28 13:03:48;;;;;;;;;;;;;;;23.33;31.03;97500.88;5003623;28;606;-78
2021/08/28 13:06:21;;;;;;;;;;;;;;;23.56;30.68;97508.00;5003807;28;671;-78
2021/08/28 13:08:46;;;;;;;;;;;;;;;23.25;31.15;97499.56;4985828;28;959;-78
2021/08/28 13:11:22;;;;;;;;;;;;;;;23.27;31.19;97502.75;5003421;28;1985;-78
2021/08/28 13:13:57;;;;;;;;;;;;;;;23.39;30.80;97506.72;4986029;28;777;-78
2021/08/28 13:16:22;;;;;;;;;;;;;;;23.25;31.29;97499.56;5002499;28;675;-78